Terminal Aerodrome Forecast
Issued by NWS Twin Cities, MN

Home | Current Version | Previous Version | Text Only | Print | Product List | Glossary On
Versions: 1 2 3 4 5 6 7 8 9 10 11 12 13 14 15 16 17 18 19
948
FTUS43 KMPX 221733
TAFSTC
TAF
KSTC 221733Z 2218/2318 17016G24KT P6SM FEW250
     FM230200 16012KT P6SM BKN110
     FM230900 16010KT P6SM VCTS BKN045CB
     FM231100 18014G20KT 6SM SHRA VCTS SCT025 BKN040CB=

USA.gov is the U.S. government's official web portal to all federal, state and local government web resources and services.